Stockholm, Sweden

12:06 PM CEST on April 01, 2015 (GMT +0200)
Bromma | | Change Station
CLOSE
Current Station
Airport
Location: Stockholm Bromma,
Elevation: 46 ft
Nearby Weather Stations

Elev 46 ft 59.37 °N, 17.90 °E | Updated 16 minutes ago

Scattered Clouds
Scattered Clouds
41 °F
Feels Like 41 °F
N
2
Wind Variable Wind from Variable

Today
High -- | Low -- °F
--% Chance of Precip.
Yesterday
High -- | Low -- °F
Precip. -- in
6:15 AM 7:29 PM
Waxing Gibbous, 92% visible
Pressure 29.24 in
Visibility 6.2 miles
Clouds Scattered Clouds 900 ft
Dew Point 36 °F
Humidity 81%
Rainfall 0.00 in
Snow Depth Not available.
UV 3 out of 12
Pollen Not available.
Air Quality Not available.
Flu Activity Not available.
METAR ESSB 010950Z VRB02KT 9999 SCT009 05/02 Q0990 R12/09//75

More Conditions Fewer Conditions

Pressure 29.24 in
Visibility 6.2 miles
Clouds Scattered Clouds 900 ft
Dew Point 36 °F
Humidity 81%
Rainfall 0.00 in
Snow Depth Not available.
UV 3 out of 12
Pollen Not available.
Air Quality Not available.
Flu Activity Not available.
METAR ESSB 010950Z VRB02KT 9999 SCT009 05/02 Q0990 R12/09//75

More Conditions Fewer Conditions

10-Day Weather Forecast

Almanac

Astronomy

Apr. 01, 2015 Rise Set
Actual Time
Civil Twilight
Nautical Twilight
Astronomical Twilight
Moon
Length of Visible Light
Length of Day
Tomorrow will be .
, % of the Moon is Illuminated

Today's Extremes

Country Highs Country Lows

Community

WunderPhotos

Upload Photos

1,809,933 photos uploaded!

WunderBlogs® & News

Nearby

Air Quality

  Air Quality AQ Index Pollutant
Not available.

Snow Depth

Station Depth Elevation

Earthquake Activity

City Distance Mag. Time & Date
Minimum magnitude displayed is 2.5.

Coastal Water Temperatures

Place Temperature

Stations

Nearby Weather Stations

Station Location Temp. Windchill Dew Point Humidity Wind Precip. Elev Updated Type